createdAt,value
2018-07-10T00:00:59.497Z,25.98
2018-07-10T00:01:59.515Z,26.07
2018-07-10T00:02:59.536Z,25.98
2018-07-10T00:03:59.559Z,26.09
2018-07-10T00:04:59.579Z,26.07
2018-07-10T00:05:59.601Z,26.09
2018-07-10T00:06:59.620Z,26.07
2018-07-10T00:07:59.670Z,25.98
2018-07-10T00:08:59.664Z,26.05
2018-07-10T00:09:59.688Z,26.05
2018-07-10T00:10:59.709Z,26.03
2018-07-10T00:11:59.733Z,26.07
2018-07-10T00:12:59.741Z,26.05
2018-07-10T00:13:59.821Z,26.06
2018-07-10T00:14:59.801Z,26.09
2018-07-10T00:15:59.864Z,26.09
2018-07-10T00:16:59.833Z,26.06
2018-07-10T00:17:59.854Z,26.07
2018-07-10T00:18:59.898Z,26.07
2018-07-10T00:19:59.895Z,26.10
2018-07-10T00:20:59.935Z,26.13
2018-07-10T00:21:59.957Z,26.10
2018-07-10T00:22:59.960Z,26.13
2018-07-10T00:23:59.980Z,26.02
2018-07-10T00:25:00.023Z,26.05
2018-07-10T00:26:00.022Z,26.07
2018-07-10T00:27:00.040Z,26.13
2018-07-10T00:28:00.078Z,26.05
2018-07-10T00:29:00.094Z,26.10
2018-07-10T00:30:02.704Z,26.09
2018-07-10T00:31:09.357Z,26.06
2018-07-10T00:32:53.471Z,26.05
2018-07-10T00:33:53.479Z,26.13
2018-07-10T00:35:46.823Z,26.13
2018-07-10T00:36:46.842Z,26.15
2018-07-10T00:38:40.194Z,26.13
2018-07-10T00:39:40.199Z,26.13
2018-07-10T00:41:33.529Z,26.10
2018-07-10T00:42:33.548Z,25.99
2018-07-10T00:44:26.910Z,26.13
2018-07-10T00:45:26.917Z,26.05
2018-07-10T00:47:20.283Z,26.15
2018-07-10T00:48:20.264Z,26.15
2018-07-10T00:50:13.604Z,26.13
2018-07-10T00:51:13.620Z,26.13
2018-07-10T00:53:06.958Z,26.09
2018-07-10T00:54:06.966Z,26.06
2018-07-10T00:56:00.322Z,26.13
2018-07-10T00:57:00.333Z,26.15
2018-07-10T00:58:53.681Z,26.06
2018-07-10T00:59:53.693Z,26.10
2018-07-10T01:01:47.075Z,26.10
2018-07-10T01:02:47.088Z,26.13
2018-07-10T01:04:40.441Z,26.06
2018-07-10T01:05:40.446Z,26.09
2018-07-10T01:07:33.782Z,26.09
2018-07-10T01:08:33.792Z,26.18
2018-07-10T01:10:27.147Z,26.18
2018-07-10T01:11:27.155Z,26.07
2018-07-10T01:13:20.647Z,26.23
2018-07-10T01:14:20.564Z,26.09
2018-07-10T01:16:13.430Z,26.10
2018-07-10T01:17:13.447Z,26.10
2018-07-10T01:19:06.784Z,26.22
2018-07-10T01:20:06.787Z,26.13
2018-07-10T01:22:00.123Z,26.09
2018-07-10T01:23:00.138Z,26.10
2018-07-10T01:24:53.480Z,26.10
2018-07-10T01:25:53.491Z,26.16
2018-07-10T01:27:46.858Z,26.06
2018-07-10T01:28:46.868Z,26.10
2018-07-10T01:30:40.217Z,26.09
2018-07-10T01:31:40.241Z,26.16
2018-07-10T01:33:33.590Z,26.15
2018-07-10T01:34:33.609Z,26.10
2018-07-10T01:36:26.970Z,26.06
2018-07-10T01:37:26.994Z,26.09
2018-07-10T01:39:20.338Z,26.13
2018-07-10T01:40:20.344Z,26.07
2018-07-10T01:42:13.720Z,26.10
2018-07-10T01:43:13.738Z,26.10
2018-07-10T01:45:07.104Z,26.10
2018-07-10T01:46:07.113Z,26.18
2018-07-10T01:48:00.459Z,26.15
2018-07-10T01:49:00.482Z,26.10
2018-07-10T01:50:53.808Z,26.09
2018-07-10T01:51:53.825Z,26.06
2018-07-10T01:53:47.160Z,26.10
2018-07-10T01:54:47.166Z,26.10
2018-07-10T01:56:40.559Z,26.18
2018-07-10T01:57:40.512Z,26.10
2018-07-10T01:59:33.875Z,26.06
2018-07-10T02:00:33.893Z,26.13
2018-07-10T02:02:27.223Z,26.10
2018-07-10T02:03:27.238Z,26.06
2018-07-10T02:05:20.165Z,26.13
2018-07-10T02:06:20.171Z,26.10
2018-07-10T02:08:13.519Z,26.16
2018-07-10T02:09:13.528Z,26.06
2018-07-10T02:11:06.870Z,26.10
2018-07-10T02:12:06.884Z,26.10
2018-07-10T02:14:00.255Z,26.18
2018-07-10T02:15:00.248Z,26.10
2018-07-10T02:16:53.606Z,26.18
2018-07-10T02:17:53.622Z,26.21
2018-07-10T02:19:46.958Z,26.19
2018-07-10T02:20:46.968Z,26.18
2018-07-10T02:22:40.363Z,26.18
2018-07-10T02:23:40.379Z,26.10
2018-07-10T02:25:33.737Z,26.10
2018-07-10T02:26:33.747Z,26.05
2018-07-10T02:28:27.079Z,26.07
2018-07-10T02:29:27.089Z,26.09
2018-07-10T02:31:20.436Z,26.09
2018-07-10T02:32:20.448Z,26.18
2018-07-10T02:34:13.795Z,26.09
2018-07-10T02:35:13.805Z,26.07
2018-07-10T02:37:07.132Z,26.06
2018-07-10T02:38:07.143Z,26.02
2018-07-10T02:40:00.493Z,26.06
2018-07-10T02:41:00.498Z,26.10
2018-07-10T02:42:55.804Z,26.07
2018-07-10T02:43:55.821Z,26.15
2018-07-10T02:45:50.788Z,26.10
2018-07-10T02:46:50.799Z,26.16
2018-07-10T02:48:44.139Z,26.18
2018-07-10T02:49:44.145Z,26.02
2018-07-10T02:51:39.394Z,26.06
2018-07-10T02:52:39.438Z,26.10
2018-07-10T02:53:39.438Z,26.07
2018-07-10T02:54:39.461Z,26.13
2018-07-10T02:55:39.499Z,26.13
2018-07-10T02:56:39.499Z,26.10
2018-07-10T02:57:39.520Z,26.05
2018-07-10T02:58:39.550Z,26.10
2018-07-10T02:59:39.560Z,26.15
2018-07-10T03:00:39.582Z,26.10
2018-07-10T03:01:39.610Z,26.19
2018-07-10T03:02:39.627Z,26.02
2018-07-10T03:03:39.652Z,26.13
2018-07-10T03:04:39.664Z,26.13
2018-07-10T03:05:39.681Z,26.13
2018-07-10T03:06:39.707Z,26.13
2018-07-10T03:07:39.730Z,26.06
2018-07-10T03:08:39.752Z,26.07
2018-07-10T03:09:39.772Z,26.13
2018-07-10T03:10:39.796Z,26.05
2018-07-10T03:11:39.817Z,26.07
2018-07-10T03:12:39.837Z,26.07
2018-07-10T03:13:39.871Z,26.09
2018-07-10T03:14:39.924Z,26.05
2018-07-10T03:15:39.900Z,26.03
2018-07-10T03:16:39.920Z,26.07
2018-07-10T03:17:39.953Z,25.96
2018-07-10T03:18:39.966Z,26.13
2018-07-10T03:19:39.984Z,26.09
2018-07-10T03:20:40.011Z,26.05
2018-07-10T03:21:40.021Z,26.10
2018-07-10T03:22:40.056Z,26.09
2018-07-10T03:23:40.065Z,26.00
2018-07-10T03:24:40.085Z,26.07
2018-07-10T03:25:40.120Z,26.03
2018-07-10T03:26:40.136Z,26.07
2018-07-10T03:27:40.159Z,26.03
2018-07-10T03:28:40.175Z,26.05
2018-07-10T03:29:40.242Z,26.06
2018-07-10T03:30:40.460Z,26.07
2018-07-10T03:31:40.233Z,26.09
2018-07-10T03:32:40.263Z,26.06
2018-07-10T03:33:40.271Z,26.06
2018-07-10T03:34:40.305Z,26.05
2018-07-10T03:35:40.324Z,26.02
2018-07-10T03:36:40.350Z,26.10
2018-07-10T03:37:40.369Z,26.05
2018-07-10T03:38:40.381Z,26.06
2018-07-10T03:39:40.416Z,25.99
2018-07-10T03:40:40.428Z,26.09
2018-07-10T03:41:40.447Z,26.02
2018-07-10T03:42:40.476Z,25.96
2018-07-10T03:43:40.494Z,26.07
2018-07-10T03:44:40.557Z,26.05
2018-07-10T03:45:40.531Z,26.05
2018-07-10T03:46:40.557Z,26.05
2018-07-10T03:47:40.575Z,26.07
2018-07-10T03:48:40.586Z,26.05
2018-07-10T03:49:40.619Z,26.02
2018-07-10T03:50:40.636Z,25.98
2018-07-10T03:51:40.656Z,26.02
2018-07-10T03:52:40.679Z,26.05
2018-07-10T03:53:40.703Z,26.02
2018-07-10T03:54:40.729Z,26.05
2018-07-10T03:55:40.746Z,26.10
2018-07-10T03:56:40.767Z,26.02
2018-07-10T03:57:40.790Z,26.03
2018-07-10T03:58:40.812Z,25.98
2018-07-10T03:59:40.841Z,25.98
2018-07-10T04:00:40.884Z,25.99
2018-07-10T04:01:40.882Z,25.98
2018-07-10T04:02:40.896Z,25.96
2018-07-10T04:03:40.916Z,26.10
2018-07-10T04:04:40.936Z,26.00
2018-07-10T04:05:40.970Z,26.06
2018-07-10T04:06:40.984Z,25.98
2018-07-10T04:07:41.035Z,26.07
2018-07-10T04:08:41.038Z,25.95
2018-07-10T04:09:41.043Z,26.05
2018-07-10T04:10:41.065Z,25.96
2018-07-10T04:11:41.103Z,25.96
2018-07-10T04:12:41.122Z,25.98
2018-07-10T04:13:41.132Z,25.96
2018-07-10T04:14:41.180Z,25.98
2018-07-10T04:15:41.236Z,25.96
2018-07-10T04:16:41.222Z,25.96
2018-07-10T04:17:41.217Z,26.06
2018-07-10T04:18:41.241Z,25.98
2018-07-10T04:19:41.252Z,26.09
2018-07-10T04:20:41.273Z,25.98
2018-07-10T04:21:41.306Z,26.03
2018-07-10T04:22:41.318Z,26.05
2018-07-10T04:23:41.339Z,26.06
2018-07-10T04:24:41.359Z,26.07
2018-07-10T04:25:41.380Z,25.95
2018-07-10T04:26:41.413Z,26.06
2018-07-10T04:27:41.416Z,25.93
2018-07-10T04:28:41.443Z,25.98
2018-07-10T04:29:41.499Z,25.99
2018-07-10T04:30:41.492Z,26.05
2018-07-10T04:31:41.498Z,26.00
2018-07-10T04:32:41.529Z,26.06
2018-07-10T04:33:41.564Z,26.07
2018-07-10T04:34:41.567Z,26.00
2018-07-10T04:35:41.594Z,26.09
2018-07-10T04:36:41.613Z,25.98
2018-07-10T04:37:41.712Z,25.91
2018-07-10T04:38:41.654Z,25.96
2018-07-10T04:39:41.667Z,25.98
2018-07-10T04:40:41.693Z,26.02
2018-07-10T04:41:41.710Z,25.99
2018-07-10T04:42:41.749Z,25.95
2018-07-10T04:43:41.765Z,25.98
2018-07-10T04:44:41.784Z,26.09
2018-07-10T04:45:41.807Z,25.99
2018-07-10T04:46:41.856Z,26.00
2018-07-10T04:47:42.016Z,25.98
2018-07-10T04:48:41.869Z,26.02
2018-07-10T04:49:41.899Z,26.05
2018-07-10T04:50:41.909Z,26.10
2018-07-10T04:51:41.934Z,25.96
2018-07-10T04:52:41.952Z,25.63
2018-07-10T04:53:41.977Z,25.33
2018-07-10T04:54:42.033Z,24.95
2018-07-10T04:55:42.020Z,24.57
2018-07-10T04:56:42.054Z,24.42
2018-07-10T04:57:42.056Z,24.01
2018-07-10T04:58:42.074Z,23.83
2018-07-10T04:59:42.107Z,23.58
2018-07-10T05:00:42.147Z,23.36
2018-07-10T05:01:42.160Z,23.17
2018-07-10T05:02:42.162Z,23.03
2018-07-10T05:03:42.177Z,22.84
2018-07-10T05:04:42.211Z,22.73
2018-07-10T05:05:42.223Z,22.69
2018-07-10T05:06:42.247Z,22.62
2018-07-10T05:07:42.271Z,22.39
2018-07-10T05:08:42.291Z,22.39
2018-07-10T05:09:42.311Z,22.32
2018-07-10T05:10:42.356Z,22.30
2018-07-10T05:11:42.344Z,22.29
2018-07-10T05:12:42.374Z,22.38
2018-07-10T05:13:42.395Z,22.57
2018-07-10T05:14:42.488Z,22.53
2018-07-10T05:15:42.425Z,22.72
2018-07-10T05:16:42.457Z,22.90
2018-07-10T05:17:42.506Z,23.02
2018-07-10T05:18:42.495Z,23.12
2018-07-10T05:19:42.519Z,23.28
2018-07-10T05:20:42.528Z,23.36
2018-07-10T05:21:42.552Z,23.48
2018-07-10T05:22:42.570Z,23.59
2018-07-10T05:23:42.592Z,23.69
2018-07-10T05:24:42.646Z,23.74
2018-07-10T05:25:42.632Z,23.73
2018-07-10T05:26:42.646Z,23.88
2018-07-10T05:27:42.674Z,23.99
2018-07-10T05:28:42.740Z,24.10
2018-07-10T05:29:42.701Z,24.21
2018-07-10T05:30:42.737Z,24.24
2018-07-10T05:31:42.749Z,24.30
2018-07-10T05:32:42.774Z,24.36
2018-07-10T05:33:42.797Z,24.48
2018-07-10T05:34:42.810Z,24.47
2018-07-10T05:35:42.914Z,24.47
2018-07-10T05:36:42.854Z,24.54
2018-07-10T05:37:42.867Z,24.55
2018-07-10T05:38:42.894Z,24.55
2018-07-10T05:39:42.904Z,24.60
2018-07-10T05:40:42.937Z,24.66
2018-07-10T05:41:42.956Z,24.70
2018-07-10T05:42:43.020Z,24.69
2018-07-10T05:43:42.995Z,24.73
2018-07-10T05:44:43.018Z,24.77
2018-07-10T05:45:43.041Z,24.77
2018-07-10T05:46:43.065Z,24.80
2018-07-10T05:47:43.075Z,24.88
2018-07-10T05:48:43.098Z,24.89
2018-07-10T05:49:43.122Z,24.86
2018-07-10T05:50:43.135Z,24.89
2018-07-10T05:51:43.207Z,24.85
2018-07-10T05:52:43.180Z,24.96
2018-07-10T05:53:43.208Z,24.99
2018-07-10T05:54:43.224Z,24.93
2018-07-10T05:55:43.246Z,24.99
2018-07-10T05:56:43.262Z,25.04
2018-07-10T05:57:43.285Z,25.03
2018-07-10T05:58:43.334Z,25.03
2018-07-10T05:59:43.326Z,24.99
2018-07-10T06:00:43.338Z,25.11
2018-07-10T06:01:43.365Z,25.03
2018-07-10T06:02:43.392Z,25.08
2018-07-10T06:03:43.410Z,25.04
2018-07-10T06:04:43.522Z,25.10
2018-07-10T06:05:43.446Z,25.14
2018-07-10T06:06:43.473Z,25.11
2018-07-10T06:07:43.491Z,25.06
2018-07-10T06:08:43.506Z,25.11
2018-07-10T06:09:43.529Z,25.08
2018-07-10T06:10:43.551Z,25.08
2018-07-10T06:11:43.570Z,25.17
2018-07-10T06:12:43.591Z,25.13
2018-07-10T06:13:43.615Z,25.14
2018-07-10T06:14:43.636Z,25.14
2018-07-10T06:15:43.668Z,25.11
2018-07-10T06:16:43.675Z,25.14
2018-07-10T06:17:43.693Z,25.16
2018-07-10T06:18:43.714Z,25.16
2018-07-10T06:19:43.742Z,25.16
2018-07-10T06:20:43.755Z,25.16
2018-07-10T06:21:43.777Z,25.10
2018-07-10T06:22:43.799Z,25.18
2018-07-10T06:23:43.820Z,25.17
2018-07-10T06:24:43.831Z,25.22
2018-07-10T06:25:43.882Z,25.21
2018-07-10T06:26:43.873Z,25.17
2018-07-10T06:27:43.902Z,25.16
2018-07-10T06:28:43.929Z,25.18
2018-07-10T06:29:43.946Z,25.18
2018-07-10T06:30:43.962Z,25.18
2018-07-10T06:31:43.991Z,25.21
2018-07-10T06:32:44.013Z,25.18
2018-07-10T06:33:44.039Z,25.23
2018-07-10T06:34:44.127Z,25.18
2018-07-10T06:35:44.059Z,25.21
2018-07-10T06:36:44.088Z,25.21
2018-07-10T06:37:44.105Z,25.23
2018-07-10T06:38:44.147Z,25.28
2018-07-10T06:39:44.159Z,25.28
2018-07-10T06:40:44.187Z,25.17
2018-07-10T06:41:44.186Z,25.23
2018-07-10T06:42:44.213Z,25.25
2018-07-10T06:43:44.238Z,25.28
2018-07-10T06:44:44.261Z,25.25
2018-07-10T06:45:44.266Z,25.23
2018-07-10T06:46:44.286Z,25.29
2018-07-10T06:47:44.316Z,25.23
2018-07-10T06:48:44.401Z,25.25
2018-07-10T06:49:44.362Z,25.23
2018-07-10T06:50:44.382Z,25.26
2018-07-10T06:51:44.400Z,25.25
2018-07-10T06:52:44.674Z,25.22
2018-07-10T06:53:44.454Z,25.25
2018-07-10T06:54:44.470Z,25.21
2018-07-10T06:55:44.486Z,25.23
2018-07-10T06:56:44.510Z,25.26
2018-07-10T06:57:44.526Z,25.23
2018-07-10T06:58:44.572Z,25.32
2018-07-10T06:59:44.564Z,25.18
2018-07-10T07:00:44.631Z,25.28
2018-07-10T07:01:44.624Z,25.28
2018-07-10T07:02:44.633Z,25.26
2018-07-10T07:03:44.653Z,25.29
2018-07-10T07:04:44.669Z,25.28
2018-07-10T07:05:44.689Z,25.28
2018-07-10T07:06:44.711Z,25.29
2018-07-10T07:07:44.786Z,25.26
2018-07-10T07:08:44.753Z,25.28
2018-07-10T07:09:44.773Z,25.25
2018-07-10T07:10:44.801Z,25.32
2018-07-10T07:11:44.819Z,25.35
2018-07-10T07:12:44.856Z,25.26
2018-07-10T07:13:44.855Z,25.28
2018-07-10T07:14:44.873Z,25.31
2018-07-10T07:15:44.933Z,25.33
2018-07-10T07:16:44.923Z,25.29
2018-07-10T07:17:44.942Z,25.31
2018-07-10T07:18:44.963Z,25.29
2018-07-10T07:19:44.988Z,25.28
2018-07-10T07:20:45.009Z,25.21
2018-07-10T07:21:45.049Z,25.29
2018-07-10T07:22:45.046Z,25.31
2018-07-10T07:23:45.113Z,25.35
2018-07-10T07:24:45.133Z,25.36
2018-07-10T07:25:45.112Z,25.29
2018-07-10T07:26:45.128Z,25.32
2018-07-10T07:27:45.147Z,25.26
2018-07-10T07:28:45.162Z,25.31
2018-07-10T07:29:45.201Z,25.31
2018-07-10T07:30:45.217Z,25.36
2018-07-10T07:31:45.230Z,25.32
2018-07-10T07:32:45.266Z,25.32
2018-07-10T07:33:45.273Z,25.32
2018-07-10T07:34:45.293Z,25.32
2018-07-10T07:35:45.317Z,25.35
2018-07-10T07:36:45.334Z,25.33
2018-07-10T07:37:45.363Z,25.41
2018-07-10T07:38:45.371Z,25.41
2018-07-10T07:39:45.391Z,25.33
2018-07-10T07:40:45.421Z,25.32
2018-07-10T07:41:45.440Z,25.32
2018-07-10T07:42:45.462Z,25.33
2018-07-10T07:43:45.547Z,25.32
2018-07-10T07:44:45.518Z,25.29
2018-07-10T07:45:45.535Z,25.33
2018-07-10T07:46:45.539Z,25.33
2018-07-10T07:47:45.561Z,25.36
2018-07-10T07:48:45.589Z,25.29
2018-07-10T07:49:45.601Z,25.32
2018-07-10T07:50:45.627Z,25.29
2018-07-10T07:51:45.649Z,25.35
2018-07-10T07:52:45.672Z,25.33
2018-07-10T07:53:45.682Z,25.31
2018-07-10T07:54:45.711Z,25.35
2018-07-10T07:55:45.731Z,25.32
2018-07-10T07:56:45.751Z,25.33
2018-07-10T07:57:45.771Z,25.33
2018-07-10T07:58:45.796Z,25.31
2018-07-10T07:59:45.814Z,25.35
2018-07-10T08:00:45.826Z,25.38
2018-07-10T08:01:45.863Z,25.35
2018-07-10T08:02:45.884Z,25.36
2018-07-10T08:03:45.901Z,25.40
2018-07-10T08:04:45.915Z,25.41
2018-07-10T08:05:45.938Z,25.36
2018-07-10T08:06:45.963Z,25.32
2018-07-10T08:07:45.981Z,25.33
2018-07-10T08:08:45.989Z,25.29
2018-07-10T08:09:46.034Z,25.31
2018-07-10T08:10:46.043Z,25.35
2018-07-10T08:11:46.062Z,25.40
2018-07-10T08:12:46.088Z,25.31
2018-07-10T08:13:46.109Z,25.35
2018-07-10T08:14:46.123Z,25.32
2018-07-10T08:15:46.144Z,25.35
2018-07-10T08:16:46.166Z,25.40
2018-07-10T08:17:46.195Z,25.38
2018-07-10T08:18:46.209Z,25.35
2018-07-10T08:19:46.231Z,25.36
2018-07-10T08:20:46.251Z,25.35
2018-07-10T08:21:46.266Z,25.32
2018-07-10T08:22:46.285Z,25.32
2018-07-10T08:23:46.312Z,25.32
2018-07-10T08:24:46.325Z,25.31
2018-07-10T08:25:46.351Z,25.29
2018-07-10T08:26:46.380Z,25.32
2018-07-10T08:27:46.419Z,25.38
2018-07-10T08:28:46.417Z,25.35
2018-07-10T08:29:46.433Z,25.40
2018-07-10T08:30:46.455Z,25.36
2018-07-10T08:31:46.483Z,25.38
2018-07-10T08:32:46.493Z,25.38
2018-07-10T08:33:46.623Z,25.38
2018-07-10T08:34:46.553Z,25.33
2018-07-10T08:35:46.565Z,25.35
2018-07-10T08:36:46.616Z,25.33
2018-07-10T08:37:46.617Z,25.31
2018-07-10T08:38:46.672Z,25.35
2018-07-10T08:39:46.643Z,25.33
2018-07-10T08:40:46.669Z,25.43
2018-07-10T08:41:46.685Z,25.35
2018-07-10T08:42:46.713Z,25.35
2018-07-10T08:43:46.723Z,25.35
2018-07-10T08:44:46.744Z,25.35
2018-07-10T08:45:46.777Z,25.33
2018-07-10T08:46:46.790Z,25.31
2018-07-10T08:47:46.817Z,25.36
2018-07-10T08:48:46.828Z,25.36
2018-07-10T08:49:46.858Z,25.32
2018-07-10T08:50:46.935Z,25.36
2018-07-10T08:51:46.894Z,25.31
2018-07-10T08:52:46.927Z,25.35
2018-07-10T08:53:46.930Z,25.36
2018-07-10T08:54:46.954Z,25.35
2018-07-10T08:55:46.979Z,25.36
2018-07-10T08:56:46.995Z,25.38
2018-07-10T08:57:47.028Z,25.41
2018-07-10T08:58:47.040Z,25.36
2018-07-10T08:59:47.094Z,25.40
2018-07-10T09:00:47.076Z,25.33
2018-07-10T09:01:47.101Z,25.40
2018-07-10T09:02:47.123Z,25.35
2018-07-10T09:03:47.144Z,25.31
2018-07-10T09:04:47.213Z,25.35
2018-07-10T09:05:47.184Z,25.35
2018-07-10T09:06:47.216Z,25.31
2018-07-10T09:07:47.223Z,25.38
2018-07-10T09:08:47.248Z,25.36
2018-07-10T09:09:47.268Z,25.35
2018-07-10T09:10:47.283Z,25.38
2018-07-10T09:11:47.308Z,25.33
2018-07-10T09:12:47.319Z,25.38
2018-07-10T09:13:47.428Z,25.32
2018-07-10T09:14:47.372Z,25.36
2018-07-10T09:15:47.395Z,25.31
2018-07-10T09:16:47.408Z,25.33
2018-07-10T09:17:47.435Z,25.32
2018-07-10T09:18:47.454Z,25.35
2018-07-10T09:19:47.471Z,25.38
2018-07-10T09:20:47.499Z,25.36
2018-07-10T09:21:47.510Z,25.36
2018-07-10T09:22:47.536Z,25.41
2018-07-10T09:23:47.551Z,25.32
2018-07-10T09:24:47.578Z,25.31
2018-07-10T09:25:47.606Z,25.41
2018-07-10T09:26:47.617Z,25.32
2018-07-10T09:27:47.641Z,25.41
2018-07-10T09:28:47.660Z,25.38
2018-07-10T09:29:47.680Z,25.38
2018-07-10T09:30:47.706Z,25.38
2018-07-10T09:31:47.731Z,25.32
2018-07-10T09:32:47.747Z,25.36
2018-07-10T09:33:47.823Z,25.31
2018-07-10T09:34:47.843Z,25.36
2018-07-10T09:35:47.840Z,25.31
2018-07-10T09:36:47.832Z,25.40
2018-07-10T09:37:47.843Z,25.40
2018-07-10T09:38:47.889Z,25.35
2018-07-10T09:39:47.924Z,25.41
2018-07-10T09:40:47.910Z,25.40
2018-07-10T09:41:47.928Z,25.35
2018-07-10T09:42:47.955Z,25.40
2018-07-10T09:43:47.983Z,25.40
2018-07-10T09:44:47.991Z,25.31
2018-07-10T09:45:48.012Z,25.33
2018-07-10T09:46:48.044Z,25.33
2018-07-10T09:47:48.060Z,25.32
2018-07-10T09:48:48.076Z,25.35
2018-07-10T09:49:48.104Z,25.32
2018-07-10T09:50:48.132Z,25.33
2018-07-10T09:51:48.134Z,25.32
2018-07-10T09:52:48.161Z,25.35
2018-07-10T09:53:48.180Z,25.33
2018-07-10T09:54:48.231Z,25.32
2018-07-10T09:55:48.284Z,25.31
2018-07-10T09:56:48.259Z,25.32
2018-07-10T09:57:48.271Z,25.35
2018-07-10T09:58:48.284Z,25.35
2018-07-10T09:59:48.307Z,25.35
2018-07-10T10:00:48.339Z,25.40
2018-07-10T10:01:48.451Z,25.40
2018-07-10T10:02:48.374Z,25.38
2018-07-10T10:03:48.392Z,25.36
2018-07-10T10:04:48.413Z,25.41
2018-07-10T10:05:48.434Z,25.41
2018-07-10T10:06:48.455Z,25.38
2018-07-10T10:07:48.468Z,25.31
2018-07-10T10:08:48.496Z,25.33
2018-07-10T10:09:48.520Z,25.41
2018-07-10T10:10:48.539Z,25.33
2018-07-10T10:11:48.551Z,25.35
2018-07-10T10:12:48.598Z,25.31
2018-07-10T10:13:48.604Z,25.41
2018-07-10T10:14:48.614Z,25.33
2018-07-10T10:15:48.701Z,25.33
2018-07-10T10:16:48.672Z,25.32
2018-07-10T10:17:48.698Z,25.36
2018-07-10T10:18:48.708Z,25.40
2018-07-10T10:19:48.729Z,25.35
2018-07-10T10:20:48.739Z,25.40
2018-07-10T10:21:48.769Z,25.38
2018-07-10T10:22:48.784Z,25.40
2018-07-10T10:23:48.806Z,25.36
2018-07-10T10:24:48.826Z,25.40
2018-07-10T10:25:48.883Z,25.35
2018-07-10T10:26:48.878Z,25.35
2018-07-10T10:27:48.890Z,25.41
2018-07-10T10:28:48.911Z,25.35
2018-07-10T10:29:48.925Z,25.35
2018-07-10T10:30:48.957Z,25.31
2018-07-10T10:31:48.972Z,25.36
2018-07-10T10:32:48.995Z,25.35
2018-07-10T10:33:49.016Z,25.32
2018-07-10T10:34:49.038Z,25.33
2018-07-10T10:35:49.156Z,25.40
2018-07-10T10:36:49.084Z,25.38
2018-07-10T10:37:49.099Z,25.36
2018-07-10T10:38:49.117Z,25.33
2018-07-10T10:39:49.132Z,25.32
2018-07-10T10:40:49.161Z,25.40
2018-07-10T10:41:49.179Z,25.29
2018-07-10T10:42:49.203Z,25.40
2018-07-10T10:43:49.221Z,25.38
2018-07-10T10:44:49.246Z,25.33
2018-07-10T10:45:49.266Z,25.38
2018-07-10T10:46:49.284Z,25.35
2018-07-10T10:47:49.301Z,25.29
2018-07-10T10:48:49.317Z,25.36
2018-07-10T10:49:49.355Z,25.35
2018-07-10T10:50:49.359Z,25.38
2018-07-10T10:51:49.387Z,25.40
2018-07-10T10:52:49.396Z,25.33
2018-07-10T10:53:49.423Z,25.29
2018-07-10T10:54:49.471Z,25.32
2018-07-10T10:55:49.469Z,25.35
2018-07-10T10:56:49.483Z,25.36
2018-07-10T10:57:49.514Z,25.38
2018-07-10T10:58:49.529Z,25.36
2018-07-10T10:59:49.557Z,25.35
2018-07-10T11:00:49.576Z,25.29
2018-07-10T11:01:49.598Z,25.35
2018-07-10T11:02:49.621Z,25.35
2018-07-10T11:03:49.641Z,25.35
2018-07-10T11:04:49.667Z,25.36
2018-07-10T11:05:49.673Z,25.35
2018-07-10T11:06:49.699Z,25.38
2018-07-10T11:07:49.725Z,25.36
2018-07-10T11:08:49.852Z,25.31
2018-07-10T11:09:49.762Z,25.35
2018-07-10T11:10:49.781Z,25.33
2018-07-10T11:11:49.808Z,25.38
2018-07-10T11:12:49.828Z,25.38
2018-07-10T11:13:49.839Z,25.38
2018-07-10T11:14:49.856Z,25.28
2018-07-10T11:15:49.906Z,25.33
2018-07-10T11:16:49.910Z,25.36
2018-07-10T11:17:49.926Z,25.38
2018-07-10T11:18:49.942Z,25.36
2018-07-10T11:19:49.971Z,25.36
2018-07-10T11:20:49.988Z,25.36
2018-07-10T11:21:50.011Z,25.35
2018-07-10T11:22:50.026Z,25.36
2018-07-10T11:23:50.048Z,25.35
2018-07-10T11:24:50.072Z,25.35
2018-07-10T11:25:50.093Z,25.35
2018-07-10T11:26:50.122Z,25.35
2018-07-10T11:27:50.138Z,25.31
2018-07-10T11:28:50.162Z,25.41
2018-07-10T11:29:50.176Z,25.38
2018-07-10T11:30:50.262Z,25.38
2018-07-10T11:31:50.315Z,25.35
2018-07-10T11:32:50.308Z,25.29
2018-07-10T11:33:50.319Z,25.38
2018-07-10T11:34:50.290Z,25.36
2018-07-10T11:35:50.296Z,25.43
2018-07-10T11:36:50.325Z,25.33
2018-07-10T11:37:50.333Z,25.40
2018-07-10T11:38:50.368Z,25.33
2018-07-10T11:39:50.374Z,25.38
2018-07-10T11:40:50.400Z,25.36
2018-07-10T11:41:50.436Z,25.31
2018-07-10T11:42:50.449Z,25.38
2018-07-10T11:43:50.460Z,25.29
2018-07-10T11:44:50.483Z,25.31
2018-07-10T11:45:50.575Z,25.38
2018-07-10T11:46:50.536Z,25.35
2018-07-10T11:47:50.553Z,25.36
2018-07-10T11:48:50.573Z,25.33
2018-07-10T11:49:50.617Z,25.35
2018-07-10T11:50:50.621Z,25.29
2018-07-10T11:51:50.753Z,25.32
2018-07-10T11:52:50.661Z,25.36
2018-07-10T11:53:50.676Z,25.33
2018-07-10T11:54:50.695Z,25.35
2018-07-10T11:55:50.717Z,25.32
2018-07-10T11:56:50.783Z,25.29
2018-07-10T11:57:50.758Z,25.35
2018-07-10T11:58:50.779Z,25.36
2018-07-10T11:59:50.815Z,25.38
2018-07-10T12:00:50.821Z,25.41
2018-07-10T12:01:50.852Z,25.33
2018-07-10T12:02:50.860Z,25.36
2018-07-10T12:03:50.883Z,25.38
2018-07-10T12:04:50.955Z,25.31
2018-07-10T12:05:50.919Z,25.33
2018-07-10T12:06:50.943Z,25.33
2018-07-10T12:07:50.961Z,25.29
2018-07-10T12:08:50.975Z,25.43
2018-07-10T12:09:51.002Z,25.31
2018-07-10T12:10:51.024Z,25.33
2018-07-10T12:11:51.048Z,25.32
2018-07-10T12:12:51.074Z,25.32
2018-07-10T12:13:51.090Z,25.35
2018-07-10T12:14:51.103Z,25.33
2018-07-10T12:15:51.134Z,25.35
2018-07-10T12:16:51.153Z,25.29
2018-07-10T12:17:51.169Z,25.36
2018-07-10T12:18:51.194Z,25.35
2018-07-10T12:19:51.214Z,25.33
2018-07-10T12:20:51.278Z,25.28
2018-07-10T12:21:51.250Z,25.33
2018-07-10T12:22:51.274Z,25.36
2018-07-10T12:23:51.296Z,25.38
2018-07-10T12:24:51.323Z,25.32
2018-07-10T12:25:51.336Z,25.29
2018-07-10T12:26:51.371Z,25.33
2018-07-10T12:27:51.405Z,25.32
2018-07-10T12:28:51.404Z,25.32
2018-07-10T12:29:51.434Z,25.41
2018-07-10T12:30:51.439Z,25.32
2018-07-10T12:31:51.466Z,25.33
2018-07-10T12:32:51.515Z,25.32
2018-07-10T12:33:51.539Z,25.32
2018-07-10T12:34:51.543Z,25.29
2018-07-10T12:35:51.562Z,25.32
2018-07-10T12:36:51.568Z,25.29
2018-07-10T12:37:51.591Z,25.31
2018-07-10T12:38:51.615Z,25.29
2018-07-10T12:39:51.628Z,25.32
2018-07-10T12:40:51.644Z,25.31
2018-07-10T12:41:51.673Z,25.31
2018-07-10T12:42:51.691Z,25.32
2018-07-10T12:43:51.713Z,25.28
2018-07-10T12:44:51.728Z,25.29
2018-07-10T12:45:51.780Z,25.22
2018-07-10T12:46:51.845Z,25.31
2018-07-10T12:47:51.819Z,25.28
2018-07-10T12:48:51.814Z,25.22
2018-07-10T12:49:51.856Z,25.29
2018-07-10T12:50:51.864Z,25.31
2018-07-10T12:51:51.920Z,25.25
2018-07-10T12:52:51.898Z,25.36
2018-07-10T12:53:51.919Z,25.26
2018-07-10T12:54:51.942Z,25.29
2018-07-10T12:55:51.966Z,25.26
2018-07-10T12:56:51.981Z,25.28
2018-07-10T12:57:52.003Z,25.29
2018-07-10T12:58:52.023Z,25.31
2018-07-10T12:59:52.173Z,25.31
2018-07-10T13:00:52.058Z,25.26
2018-07-10T13:01:52.084Z,25.31
2018-07-10T13:02:52.114Z,25.26
2018-07-10T13:03:52.134Z,25.32
2018-07-10T13:04:52.153Z,25.29
2018-07-10T13:05:52.169Z,25.29
2018-07-10T13:06:52.193Z,25.26
2018-07-10T13:07:52.223Z,25.28
2018-07-10T13:08:52.232Z,25.31
2018-07-10T13:09:52.247Z,25.26
2018-07-10T13:10:52.276Z,25.31
2018-07-10T13:11:52.299Z,25.23
2018-07-10T13:12:52.309Z,25.29
2018-07-10T13:13:52.342Z,25.31
2018-07-10T13:14:52.359Z,25.23
2018-07-10T13:15:52.379Z,25.29
2018-07-10T13:16:52.393Z,25.32
2018-07-10T13:17:52.425Z,25.29
2018-07-10T13:18:52.440Z,25.29
2018-07-10T13:19:52.462Z,25.32
2018-07-10T13:20:52.477Z,25.32
2018-07-10T13:21:52.499Z,25.26
2018-07-10T13:22:52.527Z,25.35
2018-07-10T13:23:52.569Z,25.22
2018-07-10T13:24:52.559Z,25.22
2018-07-10T13:25:52.586Z,25.28
2018-07-10T13:26:52.608Z,25.22
2018-07-10T13:27:52.627Z,25.21
2018-07-10T13:28:52.645Z,25.26
2018-07-10T13:29:52.668Z,25.31
2018-07-10T13:30:52.691Z,25.26
2018-07-10T13:31:52.702Z,25.26
2018-07-10T13:32:52.735Z,25.28
2018-07-10T13:33:52.747Z,25.26
2018-07-10T13:34:52.769Z,25.25
2018-07-10T13:35:52.816Z,25.26
2018-07-10T13:36:52.818Z,25.23